This is the latest recevied weather packets stored in our database for station/object W5HKR. If no packets are shown the sender has not sent any weather packets the latest 10 day(s).
| Time | Temp. | Humidity | Pressure | Rain* | Wind** | Luminosity | Snow |
|---|---|---|---|---|---|---|---|
| 1777432598 | 18.33° C | 91% | 990.6 hPa | 0 mm | - | - | - |
| 1777432405 | 26.67° C | 82% | 983.3 hPa | 0 mm | - | - | - |
| 1777432107 | 26.67° C | 82% | 983.1 hPa | 0 mm | - | - | - |
| 1777431805 | 26.67° C | 82% | 983 hPa | 0 mm | - | - | - |
| 1777431506 | 26.67° C | 81% | 982.7 hPa | 0 mm | - | - | - |
| 1777430605 | 27.22° C | 80% | 983 hPa | 0 mm | - | - | - |
| 1777429406 | 18.33° C | 91% | 990.6 hPa | 0 mm | - | - | - |
| 1777429357 | 27.78° C | 78% | 982.5 hPa | 0 mm | - | - | - |
| 1777428505 | 27.78° C | 77% | 982.1 hPa | 0 mm | - | - | - |
| 1777428206 | 28.33° C | 76% | 982.2 hPa | 0 mm | - | - | - |
| 1777425507 | 28.89° C | 72% | 981.7 hPa | 0 mm | - | - | - |
| 1777424005 | 29.44° C | 70% | 981.4 hPa | 0 mm | - | - | - |
| 1777423957 | 29.44° C | 70% | 981.4 hPa | 0 mm | - | - | - |
| 1777423105 | 30° C | 69% | 981.1 hPa | 0 mm | - | - | - |
| 1777422806 | 30.56° C | 69% | 981.1 hPa | 0 mm | - | - | - |
| 1777422506 | 18.33° C | 91% | 990.6 hPa | 0 mm | - | - | - |
| 1777421306 | 18.33° C | 91% | 990.6 hPa | 0 mm | - | - | - |
| 1777421006 | 18.33° C | 91% | 990.6 hPa | 0 mm | - | - | - |
| 1777419805 | 18.33° C | 91% | 990.6 hPa | 0 mm | - | - | - |
| 1777414407 | 33.89° C | 56% | 981.4 hPa | 0 mm | - | - | - |
| 1777414237 | 33.89° C | 56% | 981.7 hPa | 0 mm | - | - | - |
| 1777413158 | 18.33° C | 91% | 990.6 hPa | 0 mm | - | - | - |
| 1777412077 | 33.89° C | 58% | 982.1 hPa | 0 mm | - | - | - |
| 1777411407 | 33.89° C | 56% | 982.1 hPa | 0 mm | - | - | - |
| 1777410998 | 33.89° C | 57% | 982.2 hPa | 0 mm | - | - | - |
* Rain latest hour (hover to see other rain measurements)
** Current wind speed in m/s (hover to see current wind gust speed)